sensor_id;sensor_type;location;lat;lon;timestamp;P1;durP1;ratioP1;P2;durP2;ratioP2
23743;SDS011;12052;53.478;10.182;2023-05-10T00:01:03;6.40;;;3.10;;
23743;SDS011;12052;53.478;10.182;2023-05-10T00:03:29;8.75;;;3.20;;
23743;SDS011;12052;53.478;10.182;2023-05-10T00:05:55;6.93;;;3.08;;
23743;SDS011;12052;53.478;10.182;2023-05-10T00:08:20;4.15;;;3.10;;
23743;SDS011;12052;53.478;10.182;2023-05-10T00:10:46;4.18;;;3.22;;
23743;SDS011;12052;53.478;10.182;2023-05-10T00:13:11;3.78;;;2.72;;
23743;SDS011;12052;53.478;10.182;2023-05-10T00:15:37;7.55;;;2.78;;
23743;SDS011;12052;53.478;10.182;2023-05-10T00:18:03;8.57;;;3.15;;
23743;SDS011;12052;53.478;10.182;2023-05-10T00:20:28;6.25;;;3.17;;
23743;SDS011;12052;53.478;10.182;2023-05-10T00:22:54;3.75;;;3.13;;
23743;SDS011;12052;53.478;10.182;2023-05-10T00:25:20;7.38;;;3.25;;
23743;SDS011;12052;53.478;10.182;2023-05-10T00:27:46;4.47;;;3.17;;
23743;SDS011;12052;53.478;10.182;2023-05-10T00:30:12;8.10;;;3.20;;
23743;SDS011;12052;53.478;10.182;2023-05-10T00:32:38;7.28;;;2.80;;
23743;SDS011;12052;53.478;10.182;2023-05-10T00:35:03;4.18;;;3.20;;
23743;SDS011;12052;53.478;10.182;2023-05-10T00:37:29;6.78;;;3.05;;
23743;SDS011;12052;53.478;10.182;2023-05-10T00:39:55;5.13;;;3.05;;
23743;SDS011;12052;53.478;10.182;2023-05-10T00:42:20;7.25;;;3.25;;
23743;SDS011;12052;53.478;10.182;2023-05-10T00:44:47;5.90;;;2.92;;
23743;SDS011;12052;53.478;10.182;2023-05-10T00:47:12;7.05;;;3.35;;
23743;SDS011;12052;53.478;10.182;2023-05-10T00:49:38;6.85;;;3.40;;
23743;SDS011;12052;53.478;10.182;2023-05-10T00:52:05;4.47;;;2.90;;
23743;SDS011;12052;53.478;10.182;2023-05-10T00:54:31;7.40;;;2.95;;
23743;SDS011;12052;53.478;10.182;2023-05-10T00:56:57;4.13;;;2.90;;
23743;SDS011;12052;53.478;10.182;2023-05-10T00:59:23;5.95;;;3.38;;
23743;SDS011;12052;53.478;10.182;2023-05-10T01:01:49;6.32;;;3.05;;
23743;SDS011;12052;53.478;10.182;2023-05-10T01:04:16;4.40;;;2.72;;
23743;SDS011;12052;53.478;10.182;2023-05-10T01:06:42;4.68;;;3.33;;
23743;SDS011;12052;53.478;10.182;2023-05-10T01:09:08;6.68;;;3.20;;
23743;SDS011;12052;53.478;10.182;2023-05-10T01:11:37;6.47;;;3.22;;
23743;SDS011;12052;53.478;10.182;2023-05-10T01:14:04;4.28;;;2.90;;
23743;SDS011;12052;53.478;10.182;2023-05-10T01:16:32;8.05;;;3.35;;
23743;SDS011;12052;53.478;10.182;2023-05-10T01:19:03;5.57;;;2.83;;
23743;SDS011;12052;53.478;10.182;2023-05-10T01:30:01;4.63;;;2.85;;
23743;SDS011;12052;53.478;10.182;2023-05-10T01:43:51;5.75;;;2.92;;
23743;SDS011;12052;53.478;10.182;2023-05-10T01:46:38;5.35;;;3.13;;
23743;SDS011;12052;53.478;10.182;2023-05-10T01:49:09;8.80;;;3.50;;
23743;SDS011;12052;53.478;10.182;2023-05-10T01:51:48;4.75;;;3.42;;
23743;SDS011;12052;53.478;10.182;2023-05-10T01:54:20;5.47;;;3.58;;
23743;SDS011;12052;53.478;10.182;2023-05-10T01:56:52;9.15;;;3.10;;
23743;SDS011;12052;53.478;10.182;2023-05-10T01:59:23;7.25;;;3.75;;
23743;SDS011;12052;53.478;10.182;2023-05-10T02:01:56;5.53;;;3.20;;
23743;SDS011;12052;53.478;10.182;2023-05-10T02:04:24;4.82;;;3.00;;
23743;SDS011;12052;53.478;10.182;2023-05-10T02:06:51;7.07;;;3.60;;
23743;SDS011;12052;53.478;10.182;2023-05-10T02:09:19;7.90;;;3.83;;
23743;SDS011;12052;53.478;10.182;2023-05-10T02:11:45;4.97;;;3.10;;
23743;SDS011;12052;53.478;10.182;2023-05-10T02:14:14;6.13;;;3.72;;
23743;SDS011;12052;53.478;10.182;2023-05-10T02:16:40;5.57;;;3.38;;
23743;SDS011;12052;53.478;10.182;2023-05-10T02:19:07;3.90;;;2.92;;
23743;SDS011;12052;53.478;10.182;2023-05-10T02:21:33;4.55;;;2.88;;
23743;SDS011;12052;53.478;10.182;2023-05-10T02:24:01;6.55;;;3.08;;
23743;SDS011;12052;53.478;10.182;2023-05-10T02:26:28;4.82;;;3.03;;
23743;SDS011;12052;53.478;10.182;2023-05-10T02:28:56;6.07;;;3.60;;
23743;SDS011;12052;53.478;10.182;2023-05-10T02:31:23;5.47;;;3.00;;
23743;SDS011;12052;53.478;10.182;2023-05-10T02:33:49;7.28;;;3.33;;
23743;SDS011;12052;53.478;10.182;2023-05-10T02:36:16;4.65;;;3.30;;
23743;SDS011;12052;53.478;10.182;2023-05-10T02:38:42;7.88;;;3.28;;
23743;SDS011;12052;53.478;10.182;2023-05-10T02:41:09;7.75;;;3.35;;
23743;SDS011;12052;53.478;10.182;2023-05-10T02:43:36;7.70;;;3.55;;
23743;SDS011;12052;53.478;10.182;2023-05-10T02:46:03;7.07;;;3.35;;
23743;SDS011;12052;53.478;10.182;2023-05-10T02:48:28;7.47;;;4.60;;
23743;SDS011;12052;53.478;10.182;2023-05-10T02:50:54;11.55;;;3.30;;
23743;SDS011;12052;53.478;10.182;2023-05-10T02:53:29;3.75;;;2.72;;
23743;SDS011;12052;53.478;10.182;2023-05-10T02:55:57;5.18;;;3.20;;
23743;SDS011;12052;53.478;10.182;2023-05-10T02:58:25;6.30;;;3.53;;
23743;SDS011;12052;53.478;10.182;2023-05-10T03:00:51;5.25;;;3.00;;
23743;SDS011;12052;53.478;10.182;2023-05-10T03:03:17;8.43;;;3.75;;
23743;SDS011;12052;53.478;10.182;2023-05-10T03:05:43;6.68;;;3.40;;
23743;SDS011;12052;53.478;10.182;2023-05-10T03:08:08;10.07;;;3.60;;
23743;SDS011;12052;53.478;10.182;2023-05-10T03:10:38;6.00;;;3.15;;
23743;SDS011;12052;53.478;10.182;2023-05-10T03:13:13;5.25;;;3.30;;
23743;SDS011;12052;53.478;10.182;2023-05-10T03:18:14;7.25;;;3.15;;
23743;SDS011;12052;53.478;10.182;2023-05-10T03:20:43;4.82;;;3.25;;
23743;SDS011;12052;53.478;10.182;2023-05-10T03:23:15;6.97;;;3.70;;
23743;SDS011;12052;53.478;10.182;2023-05-10T03:25:46;7.68;;;3.20;;
23743;SDS011;12052;53.478;10.182;2023-05-10T03:28:14;6.63;;;3.22;;
23743;SDS011;12052;53.478;10.182;2023-05-10T03:30:41;5.72;;;3.25;;
23743;SDS011;12052;53.478;10.182;2023-05-10T03:33:08;4.43;;;2.97;;
23743;SDS011;12052;53.478;10.182;2023-05-10T03:35:34;5.03;;;3.47;;
23743;SDS011;12052;53.478;10.182;2023-05-10T03:38:00;6.97;;;3.40;;
23743;SDS011;12052;53.478;10.182;2023-05-10T03:40:26;7.72;;;3.55;;
23743;SDS011;12052;53.478;10.182;2023-05-10T03:42:54;5.50;;;3.05;;
23743;SDS011;12052;53.478;10.182;2023-05-10T03:45:20;7.88;;;3.92;;
23743;SDS011;12052;53.478;10.182;2023-05-10T03:47:45;5.20;;;3.88;;
23743;SDS011;12052;53.478;10.182;2023-05-10T03:50:11;6.60;;;3.75;;
23743;SDS011;12052;53.478;10.182;2023-05-10T03:52:37;6.93;;;3.03;;
23743;SDS011;12052;53.478;10.182;2023-05-10T03:55:04;7.35;;;4.15;;
23743;SDS011;12052;53.478;10.182;2023-05-10T03:57:30;7.53;;;3.60;;
23743;SDS011;12052;53.478;10.182;2023-05-10T03:59:56;5.88;;;4.00;;
23743;SDS011;12052;53.478;10.182;2023-05-10T04:02:21;6.63;;;3.60;;
23743;SDS011;12052;53.478;10.182;2023-05-10T04:04:47;7.65;;;3.60;;
23743;SDS011;12052;53.478;10.182;2023-05-10T04:07:13;9.70;;;3.20;;
23743;SDS011;12052;53.478;10.182;2023-05-10T04:09:39;4.97;;;3.35;;
23743;SDS011;12052;53.478;10.182;2023-05-10T04:12:04;5.10;;;3.83;;
23743;SDS011;12052;53.478;10.182;2023-05-10T04:14:30;7.55;;;3.60;;
23743;SDS011;12052;53.478;10.182;2023-05-10T04:16:56;6.78;;;3.65;;
23743;SDS011;12052;53.478;10.182;2023-05-10T04:19:21;5.20;;;3.35;;
23743;SDS011;12052;53.478;10.182;2023-05-10T04:21:47;7.38;;;4.20;;
23743;SDS011;12052;53.478;10.182;2023-05-10T04:24:13;5.63;;;3.38;;
23743;SDS011;12052;53.478;10.182;2023-05-10T04:26:38;6.82;;;3.67;;
23743;SDS011;12052;53.478;10.182;2023-05-10T04:29:04;5.93;;;3.67;;
23743;SDS011;12052;53.478;10.182;2023-05-10T04:31:30;7.68;;;3.30;;
23743;SDS011;12052;53.478;10.182;2023-05-10T04:33:55;7.20;;;3.42;;
23743;SDS011;12052;53.478;10.182;2023-05-10T04:36:21;5.22;;;3.55;;
23743;SDS011;12052;53.478;10.182;2023-05-10T04:38:46;5.50;;;3.45;;
23743;SDS011;12052;53.478;10.182;2023-05-10T04:41:12;7.50;;;4.25;;
23743;SDS011;12052;53.478;10.182;2023-05-10T04:43:37;7.75;;;3.80;;
23743;SDS011;12052;53.478;10.182;2023-05-10T04:46:04;12.18;;;4.20;;
23743;SDS011;12052;53.478;10.182;2023-05-10T04:48:30;7.00;;;3.55;;
23743;SDS011;12052;53.478;10.182;2023-05-10T04:50:56;9.27;;;3.83;;
23743;SDS011;12052;53.478;10.182;2023-05-10T04:53:22;4.88;;;3.22;;
23743;SDS011;12052;53.478;10.182;2023-05-10T04:55:47;6.35;;;3.35;;
23743;SDS011;12052;53.478;10.182;2023-05-10T04:58:13;8.07;;;4.38;;
23743;SDS011;12052;53.478;10.182;2023-05-10T05:00:39;7.78;;;3.58;;
23743;SDS011;12052;53.478;10.182;2023-05-10T05:03:04;5.93;;;3.60;;
23743;SDS011;12052;53.478;10.182;2023-05-10T05:05:30;6.25;;;3.60;;
23743;SDS011;12052;53.478;10.182;2023-05-10T05:07:56;4.60;;;3.20;;
23743;SDS011;12052;53.478;10.182;2023-05-10T05:10:22;3.88;;;3.10;;
23743;SDS011;12052;53.478;10.182;2023-05-10T05:12:47;10.85;;;3.97;;
23743;SDS011;12052;53.478;10.182;2023-05-10T05:15:13;5.72;;;3.47;;
23743;SDS011;12052;53.478;10.182;2023-05-10T05:17:40;6.85;;;3.42;;
23743;SDS011;12052;53.478;10.182;2023-05-10T05:20:05;10.63;;;4.00;;
23743;SDS011;12052;53.478;10.182;2023-05-10T05:22:32;6.95;;;3.70;;
23743;SDS011;12052;53.478;10.182;2023-05-10T05:24:57;6.65;;;3.60;;
23743;SDS011;12052;53.478;10.182;2023-05-10T05:27:23;5.43;;;3.72;;
23743;SDS011;12052;53.478;10.182;2023-05-10T05:29:54;6.57;;;3.78;;
23743;SDS011;12052;53.478;10.182;2023-05-10T05:32:20;4.95;;;3.40;;
23743;SDS011;12052;53.478;10.182;2023-05-10T05:34:46;6.00;;;3.22;;
23743;SDS011;12052;53.478;10.182;2023-05-10T05:37:13;5.63;;;3.42;;
23743;SDS011;12052;53.478;10.182;2023-05-10T05:39:39;9.60;;;3.47;;
23743;SDS011;12052;53.478;10.182;2023-05-10T05:42:05;7.60;;;3.15;;
23743;SDS011;12052;53.478;10.182;2023-05-10T05:44:30;10.85;;;3.65;;
23743;SDS011;12052;53.478;10.182;2023-05-10T05:46:56;5.68;;;3.65;;
23743;SDS011;12052;53.478;10.182;2023-05-10T05:49:22;6.38;;;3.45;;
23743;SDS011;12052;53.478;10.182;2023-05-10T05:51:47;7.47;;;3.70;;
23743;SDS011;12052;53.478;10.182;2023-05-10T05:54:15;5.95;;;3.35;;
23743;SDS011;12052;53.478;10.182;2023-05-10T05:56:41;8.23;;;3.30;;
23743;SDS011;12052;53.478;10.182;2023-05-10T05:59:06;4.55;;;3.40;;
23743;SDS011;12052;53.478;10.182;2023-05-10T06:01:32;12.18;;;3.67;;
23743;SDS011;12052;53.478;10.182;2023-05-10T06:03:57;5.03;;;3.60;;
23743;SDS011;12052;53.478;10.182;2023-05-10T06:06:23;4.38;;;3.20;;
23743;SDS011;12052;53.478;10.182;2023-05-10T06:08:48;6.00;;;3.53;;
23743;SDS011;12052;53.478;10.182;2023-05-10T06:11:14;7.88;;;3.67;;
23743;SDS011;12052;53.478;10.182;2023-05-10T06:13:40;4.13;;;3.20;;
23743;SDS011;12052;53.478;10.182;2023-05-10T06:16:07;6.80;;;3.45;;
23743;SDS011;12052;53.478;10.182;2023-05-10T06:18:32;4.45;;;3.15;;
23743;SDS011;12052;53.478;10.182;2023-05-10T06:20:58;6.00;;;3.78;;
23743;SDS011;12052;53.478;10.182;2023-05-10T06:23:24;6.20;;;3.83;;
23743;SDS011;12052;53.478;10.182;2023-05-10T06:25:50;7.75;;;3.60;;
23743;SDS011;12052;53.478;10.182;2023-05-10T06:28:16;7.43;;;3.00;;
23743;SDS011;12052;53.478;10.182;2023-05-10T06:30:42;7.75;;;3.67;;
23743;SDS011;12052;53.478;10.182;2023-05-10T06:33:08;8.18;;;3.58;;
23743;SDS011;12052;53.478;10.182;2023-05-10T06:35:33;6.97;;;3.80;;
23743;SDS011;12052;53.478;10.182;2023-05-10T06:37:59;5.95;;;3.33;;
23743;SDS011;12052;53.478;10.182;2023-05-10T06:40:25;5.45;;;3.50;;
23743;SDS011;12052;53.478;10.182;2023-05-10T06:42:50;5.70;;;3.65;;
23743;SDS011;12052;53.478;10.182;2023-05-10T06:45:16;5.82;;;3.85;;
23743;SDS011;12052;53.478;10.182;2023-05-10T06:47:42;4.70;;;3.40;;
23743;SDS011;12052;53.478;10.182;2023-05-10T06:50:08;6.93;;;3.92;;
23743;SDS011;12052;53.478;10.182;2023-05-10T06:52:34;7.20;;;3.65;;
23743;SDS011;12052;53.478;10.182;2023-05-10T06:55:00;6.82;;;3.70;;
23743;SDS011;12052;53.478;10.182;2023-05-10T06:57:26;9.68;;;4.80;;
23743;SDS011;12052;53.478;10.182;2023-05-10T06:59:52;5.93;;;3.17;;
23743;SDS011;12052;53.478;10.182;2023-05-10T07:02:17;5.32;;;3.67;;
23743;SDS011;12052;53.478;10.182;2023-05-10T07:04:43;6.82;;;3.70;;
23743;SDS011;12052;53.478;10.182;2023-05-10T07:07:09;5.82;;;3.67;;
23743;SDS011;12052;53.478;10.182;2023-05-10T07:09:34;5.82;;;4.07;;
23743;SDS011;12052;53.478;10.182;2023-05-10T07:12:00;5.35;;;3.55;;
23743;SDS011;12052;53.478;10.182;2023-05-10T07:14:26;6.63;;;4.07;;
23743;SDS011;12052;53.478;10.182;2023-05-10T07:16:52;5.57;;;3.53;;
23743;SDS011;12052;53.478;10.182;2023-05-10T07:19:18;7.63;;;3.47;;
23743;SDS011;12052;53.478;10.182;2023-05-10T07:21:44;4.32;;;3.17;;
23743;SDS011;12052;53.478;10.182;2023-05-10T07:24:10;7.60;;;3.58;;
23743;SDS011;12052;53.478;10.182;2023-05-10T07:26:35;8.95;;;3.78;;
23743;SDS011;12052;53.478;10.182;2023-05-10T07:29:01;5.05;;;3.40;;
23743;SDS011;12052;53.478;10.182;2023-05-10T07:31:27;6.03;;;3.40;;
23743;SDS011;12052;53.478;10.182;2023-05-10T07:33:53;5.57;;;3.15;;
23743;SDS011;12052;53.478;10.182;2023-05-10T07:36:18;6.05;;;3.20;;
23743;SDS011;12052;53.478;10.182;2023-05-10T07:38:44;7.15;;;3.88;;
23743;SDS011;12052;53.478;10.182;2023-05-10T07:41:11;6.55;;;3.67;;
23743;SDS011;12052;53.478;10.182;2023-05-10T07:43:37;9.23;;;4.22;;
23743;SDS011;12052;53.478;10.182;2023-05-10T07:46:02;5.85;;;3.60;;
23743;SDS011;12052;53.478;10.182;2023-05-10T07:48:28;6.38;;;4.35;;
23743;SDS011;12052;53.478;10.182;2023-05-10T07:50:53;7.28;;;3.63;;
23743;SDS011;12052;53.478;10.182;2023-05-10T07:53:19;5.55;;;3.55;;
23743;SDS011;12052;53.478;10.182;2023-05-10T07:55:49;5.70;;;3.45;;
23743;SDS011;12052;53.478;10.182;2023-05-10T07:58:16;5.87;;;3.87;;
23743;SDS011;12052;53.478;10.182;2023-05-10T08:00:42;5.57;;;3.35;;
23743;SDS011;12052;53.478;10.182;2023-05-10T08:03:08;4.20;;;3.28;;
23743;SDS011;12052;53.478;10.182;2023-05-10T08:05:33;5.40;;;3.53;;
23743;SDS011;12052;53.478;10.182;2023-05-10T08:08:00;9.20;;;4.00;;
23743;SDS011;12052;53.478;10.182;2023-05-10T08:10:25;6.68;;;3.75;;
23743;SDS011;12052;53.478;10.182;2023-05-10T08:12:51;8.07;;;4.30;;
23743;SDS011;12052;53.478;10.182;2023-05-10T08:15:16;6.47;;;3.88;;
23743;SDS011;12052;53.478;10.182;2023-05-10T08:17:42;5.93;;;3.50;;
23743;SDS011;12052;53.478;10.182;2023-05-10T08:20:08;5.30;;;3.63;;
23743;SDS011;12052;53.478;10.182;2023-05-10T08:22:34;7.30;;;3.90;;
23743;SDS011;12052;53.478;10.182;2023-05-10T08:24:59;4.72;;;3.80;;
23743;SDS011;12052;53.478;10.182;2023-05-10T08:27:25;6.90;;;3.75;;
23743;SDS011;12052;53.478;10.182;2023-05-10T08:29:50;6.35;;;3.80;;
23743;SDS011;12052;53.478;10.182;2023-05-10T08:32:16;8.27;;;3.75;;
23743;SDS011;12052;53.478;10.182;2023-05-10T08:34:42;4.90;;;3.72;;
23743;SDS011;12052;53.478;10.182;2023-05-10T08:37:08;4.20;;;3.70;;
23743;SDS011;12052;53.478;10.182;2023-05-10T08:39:34;6.32;;;3.58;;
23743;SDS011;12052;53.478;10.182;2023-05-10T08:42:01;5.03;;;3.40;;
23743;SDS011;12052;53.478;10.182;2023-05-10T08:44:30;8.23;;;3.60;;
23743;SDS011;12052;53.478;10.182;2023-05-10T08:46:57;6.32;;;3.88;;
23743;SDS011;12052;53.478;10.182;2023-05-10T08:49:27;6.35;;;3.72;;
23743;SDS011;12052;53.478;10.182;2023-05-10T08:51:55;7.15;;;3.40;;
23743;SDS011;12052;53.478;10.182;2023-05-10T08:54:24;5.63;;;3.63;;
23743;SDS011;12052;53.478;10.182;2023-05-10T08:56:50;5.65;;;3.75;;
23743;SDS011;12052;53.478;10.182;2023-05-10T08:59:16;5.03;;;3.88;;
23743;SDS011;12052;53.478;10.182;2023-05-10T09:01:42;6.78;;;4.03;;
23743;SDS011;12052;53.478;10.182;2023-05-10T09:04:10;6.65;;;4.45;;
23743;SDS011;12052;53.478;10.182;2023-05-10T09:06:37;8.38;;;4.22;;
23743;SDS011;12052;53.478;10.182;2023-05-10T09:09:03;7.90;;;4.25;;
23743;SDS011;12052;53.478;10.182;2023-05-10T09:11:29;6.80;;;4.25;;
23743;SDS011;12052;53.478;10.182;2023-05-10T09:13:55;7.30;;;4.00;;
23743;SDS011;12052;53.478;10.182;2023-05-10T09:16:21;10.10;;;3.70;;
23743;SDS011;12052;53.478;10.182;2023-05-10T09:18:47;15.93;;;3.97;;
23743;SDS011;12052;53.478;10.182;2023-05-10T09:21:14;7.03;;;4.22;;
23743;SDS011;12052;53.478;10.182;2023-05-10T09:23:44;11.10;;;3.70;;
23743;SDS011;12052;53.478;10.182;2023-05-10T09:26:11;5.18;;;3.90;;
23743;SDS011;12052;53.478;10.182;2023-05-10T09:28:53;7.25;;;4.13;;
23743;SDS011;12052;53.478;10.182;2023-05-10T09:31:22;5.57;;;3.58;;
23743;SDS011;12052;53.478;10.182;2023-05-10T09:33:50;6.97;;;4.30;;
23743;SDS011;12052;53.478;10.182;2023-05-10T09:36:17;8.27;;;3.88;;
23743;SDS011;12052;53.478;10.182;2023-05-10T09:41:20;7.18;;;4.07;;
23743;SDS011;12052;53.478;10.182;2023-05-10T09:43:48;6.97;;;4.38;;
23743;SDS011;12052;53.478;10.182;2023-05-10T09:46:15;7.32;;;4.20;;
23743;SDS011;12052;53.478;10.182;2023-05-10T09:48:44;5.38;;;3.97;;
23743;SDS011;12052;53.478;10.182;2023-05-10T09:51:21;5.05;;;3.90;;
23743;SDS011;12052;53.478;10.182;2023-05-10T09:53:48;6.55;;;4.70;;
23743;SDS011;12052;53.478;10.182;2023-05-10T09:56:33;8.00;;;4.32;;
23743;SDS011;12052;53.478;10.182;2023-05-10T09:59:03;6.20;;;4.30;;
23743;SDS011;12052;53.478;10.182;2023-05-10T10:01:29;8.55;;;4.35;;
23743;SDS011;12052;53.478;10.182;2023-05-10T10:03:55;7.70;;;4.43;;
23743;SDS011;12052;53.478;10.182;2023-05-10T10:06:23;6.65;;;4.30;;
23743;SDS011;12052;53.478;10.182;2023-05-10T10:08:49;10.45;;;5.18;;
23743;SDS011;12052;53.478;10.182;2023-05-10T10:11:16;8.63;;;4.72;;
23743;SDS011;12052;53.478;10.182;2023-05-10T10:13:42;8.77;;;5.22;;
23743;SDS011;12052;53.478;10.182;2023-05-10T10:16:08;13.40;;;5.82;;
23743;SDS011;12052;53.478;10.182;2023-05-10T10:18:34;10.30;;;6.03;;
23743;SDS011;12052;53.478;10.182;2023-05-10T10:21:04;7.78;;;5.75;;
23743;SDS011;12052;53.478;10.182;2023-05-10T10:23:36;11.10;;;5.97;;
23743;SDS011;12052;53.478;10.182;2023-05-10T10:26:02;12.45;;;6.43;;
23743;SDS011;12052;53.478;10.182;2023-05-10T10:31:15;10.68;;;6.63;;
23743;SDS011;12052;53.478;10.182;2023-05-10T10:36:55;11.48;;;6.70;;
23743;SDS011;12052;53.478;10.182;2023-05-10T10:39:22;14.60;;;7.00;;
23743;SDS011;12052;53.478;10.182;2023-05-10T10:41:50;12.07;;;7.10;;
23743;SDS011;12052;53.478;10.182;2023-05-10T10:57:44;13.60;;;7.32;;
23743;SDS011;12052;53.478;10.182;2023-05-10T11:03:09;10.32;;;7.10;;
23743;SDS011;12052;53.478;10.182;2023-05-10T11:05:42;9.77;;;6.75;;
23743;SDS011;12052;53.478;10.182;2023-05-10T11:13:29;10.65;;;6.28;;
23743;SDS011;12052;53.478;10.182;2023-05-10T11:20:51;9.68;;;6.68;;
23743;SDS011;12052;53.478;10.182;2023-05-10T11:23:19;13.07;;;7.47;;
23743;SDS011;12052;53.478;10.182;2023-05-10T11:25:46;11.10;;;7.72;;
23743;SDS011;12052;53.478;10.182;2023-05-10T11:28:13;15.25;;;7.82;;
23743;SDS011;12052;53.478;10.182;2023-05-10T11:30:40;13.98;;;8.48;;
23743;SDS011;12052;53.478;10.182;2023-05-10T11:33:08;14.60;;;7.68;;
23743;SDS011;12052;53.478;10.182;2023-05-10T11:35:38;13.93;;;8.43;;
23743;SDS011;12052;53.478;10.182;2023-05-10T11:38:13;13.88;;;8.13;;
23743;SDS011;12052;53.478;10.182;2023-05-10T11:40:39;14.07;;;8.40;;
23743;SDS011;12052;53.478;10.182;2023-05-10T11:43:06;11.65;;;7.88;;
23743;SDS011;12052;53.478;10.182;2023-05-10T11:45:33;13.93;;;8.95;;
23743;SDS011;12052;53.478;10.182;2023-05-10T11:47:59;14.95;;;8.80;;
23743;SDS011;12052;53.478;10.182;2023-05-10T11:50:25;15.27;;;8.35;;
23743;SDS011;12052;53.478;10.182;2023-05-10T11:52:52;17.98;;;9.73;;
23743;SDS011;12052;53.478;10.182;2023-05-10T11:55:21;15.13;;;9.52;;
23743;SDS011;12052;53.478;10.182;2023-05-10T11:57:51;17.27;;;8.80;;
23743;SDS011;12052;53.478;10.182;2023-05-10T12:00:17;14.35;;;9.23;;
23743;SDS011;12052;53.478;10.182;2023-05-10T12:02:43;14.60;;;9.98;;
23743;SDS011;12052;53.478;10.182;2023-05-10T12:05:09;18.35;;;9.77;;
23743;SDS011;12052;53.478;10.182;2023-05-10T12:07:35;16.08;;;9.45;;
23743;SDS011;12052;53.478;10.182;2023-05-10T12:12:37;15.10;;;9.00;;
23743;SDS011;12052;53.478;10.182;2023-05-10T12:15:04;13.20;;;8.15;;
23743;SDS011;12052;53.478;10.182;2023-05-10T12:17:31;14.38;;;9.52;;
23743;SDS011;12052;53.478;10.182;2023-05-10T12:22:53;15.00;;;9.18;;
23743;SDS011;12052;53.478;10.182;2023-05-10T12:25:20;16.02;;;9.52;;
23743;SDS011;12052;53.478;10.182;2023-05-10T12:27:51;12.38;;;8.70;;
23743;SDS011;12052;53.478;10.182;2023-05-10T12:30:24;13.88;;;8.82;;
23743;SDS011;12052;53.478;10.182;2023-05-10T12:32:51;11.65;;;8.07;;
23743;SDS011;12052;53.478;10.182;2023-05-10T12:35:17;12.50;;;8.68;;
23743;SDS011;12052;53.478;10.182;2023-05-10T12:37:46;14.77;;;9.30;;
23743;SDS011;12052;53.478;10.182;2023-05-10T12:40:12;14.57;;;9.25;;
23743;SDS011;12052;53.478;10.182;2023-05-10T12:42:38;13.85;;;9.57;;
23743;SDS011;12052;53.478;10.182;2023-05-10T12:45:04;11.63;;;8.45;;
23743;SDS011;12052;53.478;10.182;2023-05-10T12:47:31;11.13;;;7.57;;
23743;SDS011;12052;53.478;10.182;2023-05-10T12:49:57;10.95;;;8.02;;
23743;SDS011;12052;53.478;10.182;2023-05-10T12:52:24;12.23;;;6.50;;
23743;SDS011;12052;53.478;10.182;2023-05-10T12:54:50;9.15;;;6.15;;
23743;SDS011;12052;53.478;10.182;2023-05-10T12:57:16;10.73;;;6.90;;
23743;SDS011;12052;53.478;10.182;2023-05-10T12:59:42;13.98;;;6.55;;
23743;SDS011;12052;53.478;10.182;2023-05-10T13:02:08;10.27;;;7.03;;
23743;SDS011;12052;53.478;10.182;2023-05-10T13:04:33;9.18;;;5.90;;
23743;SDS011;12052;53.478;10.182;2023-05-10T13:06:59;8.80;;;5.72;;
23743;SDS011;12052;53.478;10.182;2023-05-10T13:09:25;10.20;;;5.38;;
23743;SDS011;12052;53.478;10.182;2023-05-10T13:11:53;8.55;;;5.35;;
23743;SDS011;12052;53.478;10.182;2023-05-10T13:14:19;6.50;;;4.72;;
23743;SDS011;12052;53.478;10.182;2023-05-10T13:16:45;6.45;;;4.47;;
23743;SDS011;12052;53.478;10.182;2023-05-10T13:19:12;7.15;;;4.90;;
23743;SDS011;12052;53.478;10.182;2023-05-10T13:21:40;8.13;;;5.28;;
23743;SDS011;12052;53.478;10.182;2023-05-10T13:24:06;8.25;;;5.03;;
23743;SDS011;12052;53.478;10.182;2023-05-10T13:26:32;6.80;;;4.70;;
23743;SDS011;12052;53.478;10.182;2023-05-10T13:28:58;6.30;;;4.53;;
23743;SDS011;12052;53.478;10.182;2023-05-10T13:31:24;7.70;;;5.32;;
23743;SDS011;12052;53.478;10.182;2023-05-10T13:33:50;9.18;;;6.40;;
23743;SDS011;12052;53.478;10.182;2023-05-10T13:36:15;10.02;;;6.60;;
23743;SDS011;12052;53.478;10.182;2023-05-10T13:38:41;9.05;;;6.28;;
23743;SDS011;12052;53.478;10.182;2023-05-10T13:41:06;8.63;;;5.13;;
23743;SDS011;12052;53.478;10.182;2023-05-10T13:43:32;7.85;;;5.00;;
23743;SDS011;12052;53.478;10.182;2023-05-10T13:45:57;8.55;;;5.75;;
23743;SDS011;12052;53.478;10.182;2023-05-10T13:48:23;6.38;;;4.57;;
23743;SDS011;12052;53.478;10.182;2023-05-10T13:50:49;7.22;;;5.30;;
23743;SDS011;12052;53.478;10.182;2023-05-10T13:53:14;9.38;;;5.88;;
23743;SDS011;12052;53.478;10.182;2023-05-10T13:55:40;8.65;;;6.15;;
23743;SDS011;12052;53.478;10.182;2023-05-10T13:58:06;8.35;;;6.00;;
23743;SDS011;12052;53.478;10.182;2023-05-10T14:00:32;7.50;;;5.45;;
23743;SDS011;12052;53.478;10.182;2023-05-10T14:02:57;8.13;;;4.95;;
23743;SDS011;12052;53.478;10.182;2023-05-10T14:05:23;8.40;;;6.13;;
23743;SDS011;12052;53.478;10.182;2023-05-10T14:07:49;8.07;;;6.15;;
23743;SDS011;12052;53.478;10.182;2023-05-10T14:10:15;9.55;;;6.47;;
23743;SDS011;12052;53.478;10.182;2023-05-10T14:12:41;8.43;;;6.20;;
23743;SDS011;12052;53.478;10.182;2023-05-10T14:15:07;7.88;;;5.13;;
23743;SDS011;12052;53.478;10.182;2023-05-10T14:17:35;6.97;;;5.35;;
23743;SDS011;12052;53.478;10.182;2023-05-10T14:20:00;8.93;;;5.38;;
23743;SDS011;12052;53.478;10.182;2023-05-10T14:22:27;8.80;;;5.65;;
23743;SDS011;12052;53.478;10.182;2023-05-10T14:24:52;8.70;;;5.53;;
23743;SDS011;12052;53.478;10.182;2023-05-10T14:27:18;8.13;;;5.68;;
23743;SDS011;12052;53.478;10.182;2023-05-10T14:29:43;15.05;;;6.28;;
23743;SDS011;12052;53.478;10.182;2023-05-10T14:32:09;9.23;;;6.32;;
23743;SDS011;12052;53.478;10.182;2023-05-10T14:34:35;11.73;;;6.82;;
23743;SDS011;12052;53.478;10.182;2023-05-10T14:37:01;10.15;;;6.25;;
23743;SDS011;12052;53.478;10.182;2023-05-10T14:39:26;12.57;;;6.60;;
23743;SDS011;12052;53.478;10.182;2023-05-10T14:41:54;10.60;;;6.43;;
23743;SDS011;12052;53.478;10.182;2023-05-10T14:44:20;10.00;;;6.20;;
23743;SDS011;12052;53.478;10.182;2023-05-10T14:46:45;10.60;;;6.65;;
23743;SDS011;12052;53.478;10.182;2023-05-10T14:49:11;12.73;;;6.53;;
23743;SDS011;12052;53.478;10.182;2023-05-10T14:51:36;10.63;;;6.60;;
23743;SDS011;12052;53.478;10.182;2023-05-10T14:54:02;9.80;;;6.40;;
23743;SDS011;12052;53.478;10.182;2023-05-10T14:56:28;8.85;;;6.72;;
23743;SDS011;12052;53.478;10.182;2023-05-10T14:58:53;8.27;;;6.38;;
23743;SDS011;12052;53.478;10.182;2023-05-10T15:01:19;8.82;;;6.20;;
23743;SDS011;12052;53.478;10.182;2023-05-10T15:03:45;7.88;;;5.07;;
23743;SDS011;12052;53.478;10.182;2023-05-10T15:06:10;9.13;;;5.80;;
23743;SDS011;12052;53.478;10.182;2023-05-10T15:08:36;7.75;;;5.30;;
23743;SDS011;12052;53.478;10.182;2023-05-10T15:11:02;7.43;;;5.18;;
23743;SDS011;12052;53.478;10.182;2023-05-10T15:13:28;7.53;;;5.70;;
23743;SDS011;12052;53.478;10.182;2023-05-10T15:15:53;10.40;;;5.07;;
23743;SDS011;12052;53.478;10.182;2023-05-10T15:18:19;8.30;;;4.90;;
23743;SDS011;12052;53.478;10.182;2023-05-10T15:20:45;7.60;;;5.47;;
23743;SDS011;12052;53.478;10.182;2023-05-10T15:23:10;7.97;;;4.65;;
23743;SDS011;12052;53.478;10.182;2023-05-10T15:25:36;6.80;;;4.97;;
23743;SDS011;12052;53.478;10.182;2023-05-10T15:28:02;7.82;;;5.43;;
23743;SDS011;12052;53.478;10.182;2023-05-10T15:30:29;7.80;;;4.55;;